Terminal Aerodrome Forecast
Issued by NWS

Home | Current Version | Previous Version | Text Only | Print | Product List | Glossary On
Versions: 1 2 3 4 5 6 7 8 9 10 11 12
000
FTUS46 KPDT 221100
TAFDLS
TAF
KDLS 221126Z 2212/2312 30010KT P6SM VCSH BKN070 OVC100
     FM221500 VRB05KT P6SM VCSH BKN060 OVC090
     FM222100 31009KT P6SM SCT060 BKN120
     FM230000 34009KT P6SM VCTS BKN060CB OVC100
     FM230600 30008KT P6SM VCSH SCT060 BKN100=

USA.gov is the U.S. government's official web portal to all federal, state and local government web resources and services.